sensor_id;sensor_type;location;lat;lon;timestamp;P1;durP1;ratioP1;P2;durP2;ratioP2
41572;SDS011;27286;47.870;19.006;2023-04-15T00:00:32;8.73;;;7.60;;
41572;SDS011;27286;47.870;19.006;2023-04-15T00:02:58;10.18;;;8.77;;
41572;SDS011;27286;47.870;19.006;2023-04-15T00:05:24;9.52;;;8.63;;
41572;SDS011;27286;47.870;19.006;2023-04-15T00:07:49;10.65;;;9.48;;
41572;SDS011;27286;47.870;19.006;2023-04-15T00:10:15;13.27;;;11.88;;
41572;SDS011;27286;47.870;19.006;2023-04-15T00:12:40;14.48;;;12.13;;
41572;SDS011;27286;47.870;19.006;2023-04-15T00:15:07;12.70;;;11.48;;
41572;SDS011;27286;47.870;19.006;2023-04-15T00:17:33;12.80;;;11.60;;
41572;SDS011;27286;47.870;19.006;2023-04-15T00:19:59;13.73;;;12.32;;
41572;SDS011;27286;47.870;19.006;2023-04-15T00:22:25;14.13;;;12.43;;
41572;SDS011;27286;47.870;19.006;2023-04-15T00:24:51;16.35;;;14.70;;
41572;SDS011;27286;47.870;19.006;2023-04-15T00:27:17;15.48;;;13.98;;
41572;SDS011;27286;47.870;19.006;2023-04-15T00:29:43;14.88;;;13.23;;
41572;SDS011;27286;47.870;19.006;2023-04-15T00:32:09;14.75;;;13.35;;
41572;SDS011;27286;47.870;19.006;2023-04-15T00:34:34;13.93;;;12.55;;
41572;SDS011;27286;47.870;19.006;2023-04-15T00:37:00;15.23;;;13.68;;
41572;SDS011;27286;47.870;19.006;2023-04-15T00:39:26;16.08;;;13.90;;
41572;SDS011;27286;47.870;19.006;2023-04-15T00:41:52;14.65;;;13.23;;
41572;SDS011;27286;47.870;19.006;2023-04-15T00:44:18;16.60;;;13.77;;
41572;SDS011;27286;47.870;19.006;2023-04-15T00:46:43;15.40;;;13.80;;
41572;SDS011;27286;47.870;19.006;2023-04-15T00:49:10;15.40;;;13.90;;
41572;SDS011;27286;47.870;19.006;2023-04-15T00:51:37;15.98;;;14.30;;
41572;SDS011;27286;47.870;19.006;2023-04-15T00:54:02;14.98;;;13.48;;
41572;SDS011;27286;47.870;19.006;2023-04-15T00:56:28;15.57;;;13.93;;
41572;SDS011;27286;47.870;19.006;2023-04-15T00:58:54;15.18;;;13.55;;
41572;SDS011;27286;47.870;19.006;2023-04-15T01:01:21;16.42;;;14.25;;
41572;SDS011;27286;47.870;19.006;2023-04-15T01:03:50;16.85;;;14.27;;
41572;SDS011;27286;47.870;19.006;2023-04-15T01:06:15;17.92;;;14.88;;
41572;SDS011;27286;47.870;19.006;2023-04-15T01:08:42;16.88;;;15.20;;
41572;SDS011;27286;47.870;19.006;2023-04-15T01:11:07;16.30;;;14.60;;
41572;SDS011;27286;47.870;19.006;2023-04-15T01:13:34;16.35;;;13.13;;
41572;SDS011;27286;47.870;19.006;2023-04-15T01:16:00;22.63;;;14.23;;
41572;SDS011;27286;47.870;19.006;2023-04-15T01:18:27;15.52;;;13.93;;
41572;SDS011;27286;47.870;19.006;2023-04-15T01:20:53;15.70;;;14.07;;
41572;SDS011;27286;47.870;19.006;2023-04-15T01:23:19;15.90;;;14.07;;
41572;SDS011;27286;47.870;19.006;2023-04-15T01:25:46;15.10;;;13.23;;
41572;SDS011;27286;47.870;19.006;2023-04-15T01:28:13;18.75;;;14.43;;
41572;SDS011;27286;47.870;19.006;2023-04-15T01:30:39;14.82;;;13.23;;
41572;SDS011;27286;47.870;19.006;2023-04-15T01:33:04;16.25;;;14.55;;
41572;SDS011;27286;47.870;19.006;2023-04-15T01:35:30;15.13;;;13.25;;
41572;SDS011;27286;47.870;19.006;2023-04-15T01:37:57;15.48;;;13.75;;
41572;SDS011;27286;47.870;19.006;2023-04-15T01:40:28;12.63;;;11.32;;
41572;SDS011;27286;47.870;19.006;2023-04-15T01:42:54;14.93;;;11.38;;
41572;SDS011;27286;47.870;19.006;2023-04-15T01:45:20;12.88;;;11.30;;
41572;SDS011;27286;47.870;19.006;2023-04-15T01:47:46;15.68;;;12.52;;
41572;SDS011;27286;47.870;19.006;2023-04-15T01:50:11;13.63;;;11.82;;
41572;SDS011;27286;47.870;19.006;2023-04-15T01:52:37;13.20;;;11.80;;
41572;SDS011;27286;47.870;19.006;2023-04-15T01:55:02;15.38;;;12.63;;
41572;SDS011;27286;47.870;19.006;2023-04-15T01:57:28;14.25;;;11.68;;
41572;SDS011;27286;47.870;19.006;2023-04-15T01:59:54;13.52;;;12.07;;
41572;SDS011;27286;47.870;19.006;2023-04-15T02:02:20;11.40;;;10.20;;
41572;SDS011;27286;47.870;19.006;2023-04-15T02:04:45;10.25;;;9.13;;
41572;SDS011;27286;47.870;19.006;2023-04-15T02:07:11;9.93;;;8.52;;
41572;SDS011;27286;47.870;19.006;2023-04-15T02:09:36;9.02;;;8.10;;
41572;SDS011;27286;47.870;19.006;2023-04-15T02:12:02;9.35;;;8.35;;
41572;SDS011;27286;47.870;19.006;2023-04-15T02:14:28;10.13;;;8.50;;
41572;SDS011;27286;47.870;19.006;2023-04-15T02:16:53;9.80;;;8.73;;
41572;SDS011;27286;47.870;19.006;2023-04-15T02:19:18;8.45;;;7.20;;
41572;SDS011;27286;47.870;19.006;2023-04-15T02:21:44;9.98;;;7.15;;
41572;SDS011;27286;47.870;19.006;2023-04-15T02:24:09;7.45;;;6.63;;
41572;SDS011;27286;47.870;19.006;2023-04-15T02:26:36;7.93;;;6.80;;
41572;SDS011;27286;47.870;19.006;2023-04-15T02:29:01;6.95;;;5.78;;
41572;SDS011;27286;47.870;19.006;2023-04-15T02:31:27;8.05;;;6.82;;
41572;SDS011;27286;47.870;19.006;2023-04-15T02:33:52;9.05;;;6.22;;
41572;SDS011;27286;47.870;19.006;2023-04-15T02:36:18;6.65;;;5.95;;
41572;SDS011;27286;47.870;19.006;2023-04-15T02:38:45;8.45;;;6.97;;
41572;SDS011;27286;47.870;19.006;2023-04-15T02:41:10;9.93;;;6.90;;
41572;SDS011;27286;47.870;19.006;2023-04-15T02:43:35;7.00;;;5.85;;
41572;SDS011;27286;47.870;19.006;2023-04-15T02:46:02;8.02;;;6.50;;
41572;SDS011;27286;47.870;19.006;2023-04-15T02:48:27;7.03;;;6.15;;
41572;SDS011;27286;47.870;19.006;2023-04-15T02:50:53;7.25;;;6.45;;
41572;SDS011;27286;47.870;19.006;2023-04-15T02:53:18;10.63;;;6.38;;
41572;SDS011;27286;47.870;19.006;2023-04-15T02:55:44;7.43;;;6.10;;
41572;SDS011;27286;47.870;19.006;2023-04-15T02:58:10;11.55;;;6.20;;
41572;SDS011;27286;47.870;19.006;2023-04-15T03:00:35;8.55;;;6.50;;
41572;SDS011;27286;47.870;19.006;2023-04-15T03:03:02;8.85;;;6.30;;
41572;SDS011;27286;47.870;19.006;2023-04-15T03:05:28;7.95;;;5.70;;
41572;SDS011;27286;47.870;19.006;2023-04-15T03:07:54;8.10;;;6.28;;
41572;SDS011;27286;47.870;19.006;2023-04-15T03:10:19;9.07;;;7.00;;
41572;SDS011;27286;47.870;19.006;2023-04-15T03:12:45;8.77;;;7.28;;
41572;SDS011;27286;47.870;19.006;2023-04-15T03:15:11;9.27;;;7.50;;
41572;SDS011;27286;47.870;19.006;2023-04-15T03:17:36;8.13;;;6.88;;
41572;SDS011;27286;47.870;19.006;2023-04-15T03:20:02;8.25;;;6.60;;
41572;SDS011;27286;47.870;19.006;2023-04-15T03:22:30;7.10;;;5.90;;
41572;SDS011;27286;47.870;19.006;2023-04-15T03:24:58;8.60;;;7.20;;
41572;SDS011;27286;47.870;19.006;2023-04-15T03:27:24;9.13;;;7.22;;
41572;SDS011;27286;47.870;19.006;2023-04-15T03:29:49;7.47;;;6.68;;
41572;SDS011;27286;47.870;19.006;2023-04-15T03:32:15;9.07;;;7.45;;
41572;SDS011;27286;47.870;19.006;2023-04-15T03:34:41;9.68;;;7.53;;
41572;SDS011;27286;47.870;19.006;2023-04-15T03:37:07;11.95;;;9.00;;
41572;SDS011;27286;47.870;19.006;2023-04-15T03:39:32;22.92;;;20.50;;
41572;SDS011;27286;47.870;19.006;2023-04-15T03:41:58;13.18;;;10.60;;
41572;SDS011;27286;47.870;19.006;2023-04-15T03:44:25;10.50;;;7.60;;
41572;SDS011;27286;47.870;19.006;2023-04-15T03:46:50;9.82;;;7.78;;
41572;SDS011;27286;47.870;19.006;2023-04-15T03:49:16;10.68;;;8.27;;
41572;SDS011;27286;47.870;19.006;2023-04-15T03:51:41;10.52;;;7.60;;
41572;SDS011;27286;47.870;19.006;2023-04-15T03:54:07;8.65;;;6.55;;
41572;SDS011;27286;47.870;19.006;2023-04-15T03:56:32;8.77;;;7.05;;
41572;SDS011;27286;47.870;19.006;2023-04-15T03:58:57;9.93;;;7.38;;
41572;SDS011;27286;47.870;19.006;2023-04-15T04:01:23;13.05;;;7.93;;
41572;SDS011;27286;47.870;19.006;2023-04-15T04:03:48;8.90;;;7.28;;
41572;SDS011;27286;47.870;19.006;2023-04-15T04:06:14;8.90;;;6.68;;
41572;SDS011;27286;47.870;19.006;2023-04-15T04:08:39;10.75;;;8.65;;
41572;SDS011;27286;47.870;19.006;2023-04-15T04:11:05;11.18;;;6.63;;
41572;SDS011;27286;47.870;19.006;2023-04-15T04:13:30;8.50;;;6.47;;
41572;SDS011;27286;47.870;19.006;2023-04-15T04:15:56;9.75;;;6.80;;
41572;SDS011;27286;47.870;19.006;2023-04-15T04:18:21;11.00;;;6.82;;
41572;SDS011;27286;47.870;19.006;2023-04-15T04:20:47;22.70;;;15.30;;
41572;SDS011;27286;47.870;19.006;2023-04-15T04:23:12;24.50;;;16.23;;
41572;SDS011;27286;47.870;19.006;2023-04-15T04:25:37;27.27;;;20.85;;
41572;SDS011;27286;47.870;19.006;2023-04-15T04:28:03;21.42;;;16.85;;
41572;SDS011;27286;47.870;19.006;2023-04-15T04:30:28;16.17;;;13.23;;
41572;SDS011;27286;47.870;19.006;2023-04-15T04:32:54;16.50;;;12.32;;
41572;SDS011;27286;47.870;19.006;2023-04-15T04:35:19;15.07;;;10.85;;
41572;SDS011;27286;47.870;19.006;2023-04-15T04:37:46;16.25;;;11.88;;
41572;SDS011;27286;47.870;19.006;2023-04-15T04:40:11;16.50;;;13.18;;
41572;SDS011;27286;47.870;19.006;2023-04-15T04:42:37;19.15;;;12.82;;
41572;SDS011;27286;47.870;19.006;2023-04-15T04:45:03;14.25;;;11.05;;
41572;SDS011;27286;47.870;19.006;2023-04-15T04:47:28;11.93;;;9.27;;
41572;SDS011;27286;47.870;19.006;2023-04-15T04:49:54;10.32;;;8.25;;
41572;SDS011;27286;47.870;19.006;2023-04-15T04:52:19;13.07;;;7.70;;
41572;SDS011;27286;47.870;19.006;2023-04-15T04:54:45;7.50;;;6.47;;
41572;SDS011;27286;47.870;19.006;2023-04-15T04:57:11;8.52;;;7.03;;
41572;SDS011;27286;47.870;19.006;2023-04-15T04:59:37;8.23;;;6.70;;
41572;SDS011;27286;47.870;19.006;2023-04-15T05:02:03;8.55;;;6.28;;
41572;SDS011;27286;47.870;19.006;2023-04-15T05:04:28;8.23;;;5.85;;
41572;SDS011;27286;47.870;19.006;2023-04-15T05:06:55;9.65;;;6.75;;
41572;SDS011;27286;47.870;19.006;2023-04-15T05:09:20;7.30;;;5.97;;
41572;SDS011;27286;47.870;19.006;2023-04-15T05:11:46;8.27;;;6.20;;
41572;SDS011;27286;47.870;19.006;2023-04-15T05:14:11;9.45;;;5.55;;
41572;SDS011;27286;47.870;19.006;2023-04-15T05:16:37;7.03;;;5.88;;
41572;SDS011;27286;47.870;19.006;2023-04-15T05:19:02;10.57;;;6.97;;
41572;SDS011;27286;47.870;19.006;2023-04-15T05:21:27;7.97;;;5.97;;
41572;SDS011;27286;47.870;19.006;2023-04-15T05:23:53;7.78;;;6.10;;
41572;SDS011;27286;47.870;19.006;2023-04-15T05:26:18;7.63;;;5.57;;
41572;SDS011;27286;47.870;19.006;2023-04-15T05:28:44;7.93;;;6.50;;
41572;SDS011;27286;47.870;19.006;2023-04-15T05:31:10;7.93;;;6.35;;
41572;SDS011;27286;47.870;19.006;2023-04-15T05:33:35;7.30;;;5.90;;
41572;SDS011;27286;47.870;19.006;2023-04-15T05:36:01;8.25;;;6.40;;
41572;SDS011;27286;47.870;19.006;2023-04-15T05:38:26;7.47;;;6.40;;
41572;SDS011;27286;47.870;19.006;2023-04-15T05:40:51;6.63;;;5.93;;
41572;SDS011;27286;47.870;19.006;2023-04-15T05:43:17;8.07;;;6.55;;
41572;SDS011;27286;47.870;19.006;2023-04-15T05:45:42;9.38;;;6.88;;
41572;SDS011;27286;47.870;19.006;2023-04-15T05:48:07;8.25;;;7.20;;
41572;SDS011;27286;47.870;19.006;2023-04-15T05:50:33;11.05;;;6.72;;
41572;SDS011;27286;47.870;19.006;2023-04-15T05:52:59;7.28;;;6.57;;
41572;SDS011;27286;47.870;19.006;2023-04-15T05:55:25;7.00;;;6.15;;
41572;SDS011;27286;47.870;19.006;2023-04-15T05:57:51;8.57;;;7.13;;
41572;SDS011;27286;47.870;19.006;2023-04-15T06:00:16;7.00;;;5.95;;
41572;SDS011;27286;47.870;19.006;2023-04-15T06:02:42;9.38;;;8.18;;
41572;SDS011;27286;47.870;19.006;2023-04-15T06:05:07;7.30;;;6.45;;
41572;SDS011;27286;47.870;19.006;2023-04-15T06:07:33;9.30;;;8.30;;
41572;SDS011;27286;47.870;19.006;2023-04-15T06:10:01;8.90;;;6.75;;
41572;SDS011;27286;47.870;19.006;2023-04-15T06:12:27;8.98;;;7.00;;
41572;SDS011;27286;47.870;19.006;2023-04-15T06:14:52;9.63;;;7.43;;
41572;SDS011;27286;47.870;19.006;2023-04-15T06:17:18;8.45;;;6.65;;
41572;SDS011;27286;47.870;19.006;2023-04-15T06:19:43;8.57;;;7.78;;
41572;SDS011;27286;47.870;19.006;2023-04-15T06:22:09;8.77;;;7.88;;
41572;SDS011;27286;47.870;19.006;2023-04-15T06:24:34;10.00;;;7.10;;
41572;SDS011;27286;47.870;19.006;2023-04-15T06:27:01;7.75;;;6.95;;
41572;SDS011;27286;47.870;19.006;2023-04-15T06:29:27;6.80;;;6.10;;
41572;SDS011;27286;47.870;19.006;2023-04-15T06:31:52;8.30;;;7.22;;
41572;SDS011;27286;47.870;19.006;2023-04-15T06:34:18;9.63;;;7.72;;
41572;SDS011;27286;47.870;19.006;2023-04-15T06:36:44;9.52;;;7.43;;
41572;SDS011;27286;47.870;19.006;2023-04-15T06:39:09;10.07;;;8.45;;
41572;SDS011;27286;47.870;19.006;2023-04-15T06:41:35;13.35;;;10.65;;
41572;SDS011;27286;47.870;19.006;2023-04-15T06:44:00;17.95;;;13.07;;
41572;SDS011;27286;47.870;19.006;2023-04-15T06:46:26;14.15;;;10.50;;
41572;SDS011;27286;47.870;19.006;2023-04-15T06:48:51;9.82;;;6.28;;
41572;SDS011;27286;47.870;19.006;2023-04-15T06:51:17;11.88;;;7.32;;
41572;SDS011;27286;47.870;19.006;2023-04-15T06:53:43;14.73;;;10.15;;
41572;SDS011;27286;47.870;19.006;2023-04-15T06:56:08;11.43;;;9.55;;
41572;SDS011;27286;47.870;19.006;2023-04-15T06:58:34;12.30;;;8.23;;
41572;SDS011;27286;47.870;19.006;2023-04-15T07:00:59;10.88;;;7.50;;
41572;SDS011;27286;47.870;19.006;2023-04-15T07:03:25;7.20;;;6.45;;
41572;SDS011;27286;47.870;19.006;2023-04-15T07:05:51;9.15;;;7.38;;
41572;SDS011;27286;47.870;19.006;2023-04-15T07:08:16;16.73;;;12.50;;
41572;SDS011;27286;47.870;19.006;2023-04-15T07:10:42;15.73;;;12.55;;
41572;SDS011;27286;47.870;19.006;2023-04-15T07:13:08;14.55;;;11.70;;
41572;SDS011;27286;47.870;19.006;2023-04-15T07:15:33;11.35;;;10.23;;
41572;SDS011;27286;47.870;19.006;2023-04-15T07:17:59;12.73;;;10.10;;
41572;SDS011;27286;47.870;19.006;2023-04-15T07:20:24;17.05;;;13.95;;
41572;SDS011;27286;47.870;19.006;2023-04-15T07:22:49;22.50;;;15.90;;
41572;SDS011;27286;47.870;19.006;2023-04-15T07:25:15;18.02;;;14.57;;
41572;SDS011;27286;47.870;19.006;2023-04-15T07:27:41;15.95;;;11.38;;
41572;SDS011;27286;47.870;19.006;2023-04-15T07:30:07;10.93;;;9.65;;
41572;SDS011;27286;47.870;19.006;2023-04-15T07:32:33;10.90;;;9.15;;
41572;SDS011;27286;47.870;19.006;2023-04-15T07:34:58;11.05;;;8.38;;
41572;SDS011;27286;47.870;19.006;2023-04-15T07:37:24;10.27;;;8.52;;
41572;SDS011;27286;47.870;19.006;2023-04-15T07:39:49;10.27;;;8.57;;
41572;SDS011;27286;47.870;19.006;2023-04-15T07:42:15;10.18;;;7.93;;
41572;SDS011;27286;47.870;19.006;2023-04-15T07:44:40;10.68;;;8.32;;
41572;SDS011;27286;47.870;19.006;2023-04-15T07:47:06;9.02;;;7.60;;
41572;SDS011;27286;47.870;19.006;2023-04-15T07:49:31;12.95;;;10.38;;
41572;SDS011;27286;47.870;19.006;2023-04-15T07:51:57;6.95;;;6.25;;
41572;SDS011;27286;47.870;19.006;2023-04-15T07:54:24;7.35;;;5.70;;
41572;SDS011;27286;47.870;19.006;2023-04-15T07:56:49;8.25;;;5.90;;
41572;SDS011;27286;47.870;19.006;2023-04-15T07:59:15;10.55;;;8.05;;
41572;SDS011;27286;47.870;19.006;2023-04-15T08:01:42;6.40;;;5.60;;
41572;SDS011;27286;47.870;19.006;2023-04-15T08:04:08;5.22;;;4.65;;
41572;SDS011;27286;47.870;19.006;2023-04-15T08:06:34;7.25;;;4.90;;
41572;SDS011;27286;47.870;19.006;2023-04-15T08:09:00;7.90;;;4.53;;
41572;SDS011;27286;47.870;19.006;2023-04-15T08:11:26;6.30;;;4.75;;
41572;SDS011;27286;47.870;19.006;2023-04-15T08:13:51;7.15;;;4.25;;
41572;SDS011;27286;47.870;19.006;2023-04-15T08:16:19;6.50;;;4.65;;
41572;SDS011;27286;47.870;19.006;2023-04-15T08:18:50;5.68;;;4.57;;
41572;SDS011;27286;47.870;19.006;2023-04-15T08:21:17;6.05;;;4.65;;
41572;SDS011;27286;47.870;19.006;2023-04-15T08:23:43;6.00;;;4.30;;
41572;SDS011;27286;47.870;19.006;2023-04-15T08:26:10;7.60;;;5.25;;
41572;SDS011;27286;47.870;19.006;2023-04-15T08:28:37;5.00;;;4.25;;
41572;SDS011;27286;47.870;19.006;2023-04-15T08:31:03;6.47;;;4.05;;
41572;SDS011;27286;47.870;19.006;2023-04-15T08:33:29;6.85;;;4.05;;
41572;SDS011;27286;47.870;19.006;2023-04-15T08:35:54;4.15;;;2.80;;
41572;SDS011;27286;47.870;19.006;2023-04-15T08:38:20;3.67;;;3.00;;
41572;SDS011;27286;47.870;19.006;2023-04-15T08:40:46;3.80;;;2.75;;
41572;SDS011;27286;47.870;19.006;2023-04-15T08:43:14;4.78;;;3.80;;
41572;SDS011;27286;47.870;19.006;2023-04-15T08:45:46;9.27;;;6.75;;
41572;SDS011;27286;47.870;19.006;2023-04-15T08:48:15;5.75;;;3.28;;
41572;SDS011;27286;47.870;19.006;2023-04-15T08:50:41;5.70;;;3.80;;
41572;SDS011;27286;47.870;19.006;2023-04-15T08:53:08;3.72;;;2.60;;
41572;SDS011;27286;47.870;19.006;2023-04-15T08:55:35;3.42;;;1.90;;
41572;SDS011;27286;47.870;19.006;2023-04-15T09:00:39;2.50;;;1.58;;
41572;SDS011;27286;47.870;19.006;2023-04-15T09:03:05;3.67;;;1.35;;
41572;SDS011;27286;47.870;19.006;2023-04-15T09:05:32;3.78;;;1.73;;
41572;SDS011;27286;47.870;19.006;2023-04-15T09:07:58;4.75;;;2.22;;
41572;SDS011;27286;47.870;19.006;2023-04-15T09:10:24;3.25;;;1.20;;
41572;SDS011;27286;47.870;19.006;2023-04-15T09:12:50;2.92;;;1.02;;
41572;SDS011;27286;47.870;19.006;2023-04-15T09:15:15;3.05;;;1.52;;
41572;SDS011;27286;47.870;19.006;2023-04-15T09:17:44;2.85;;;1.65;;
41572;SDS011;27286;47.870;19.006;2023-04-15T09:20:14;1.45;;;0.90;;
41572;SDS011;27286;47.870;19.006;2023-04-15T09:22:43;3.13;;;1.63;;
41572;SDS011;27286;47.870;19.006;2023-04-15T09:27:52;2.65;;;1.00;;
41572;SDS011;27286;47.870;19.006;2023-04-15T09:30:20;2.35;;;1.10;;
41572;SDS011;27286;47.870;19.006;2023-04-15T09:32:56;2.17;;;1.55;;
41572;SDS011;27286;47.870;19.006;2023-04-15T09:35:24;2.83;;;1.85;;
41572;SDS011;27286;47.870;19.006;2023-04-15T09:37:50;3.03;;;1.15;;
41572;SDS011;27286;47.870;19.006;2023-04-15T09:45:29;2.00;;;1.08;;
41572;SDS011;27286;47.870;19.006;2023-04-15T09:47:59;1.77;;;1.20;;
41572;SDS011;27286;47.870;19.006;2023-04-15T09:50:43;2.33;;;1.10;;
41572;SDS011;27286;47.870;19.006;2023-04-15T09:53:09;8.23;;;2.08;;
41572;SDS011;27286;47.870;19.006;2023-04-15T09:55:37;3.97;;;2.50;;
41572;SDS011;27286;47.870;19.006;2023-04-15T09:58:07;3.05;;;1.50;;
41572;SDS011;27286;47.870;19.006;2023-04-15T10:00:34;3.78;;;1.80;;
41572;SDS011;27286;47.870;19.006;2023-04-15T10:03:01;3.20;;;1.75;;
41572;SDS011;27286;47.870;19.006;2023-04-15T10:05:29;3.05;;;1.17;;
41572;SDS011;27286;47.870;19.006;2023-04-15T10:07:55;2.13;;;0.90;;
41572;SDS011;27286;47.870;19.006;2023-04-15T10:10:21;1.67;;;1.00;;
41572;SDS011;27286;47.870;19.006;2023-04-15T10:12:47;1.70;;;0.90;;
41572;SDS011;27286;47.870;19.006;2023-04-15T10:15:15;1.50;;;0.60;;
41572;SDS011;27286;47.870;19.006;2023-04-15T10:17:42;3.42;;;0.82;;
41572;SDS011;27286;47.870;19.006;2023-04-15T10:20:09;2.40;;;1.25;;
41572;SDS011;27286;47.870;19.006;2023-04-15T10:22:37;2.83;;;1.10;;
41572;SDS011;27286;47.870;19.006;2023-04-15T10:25:03;5.35;;;1.67;;
41572;SDS011;27286;47.870;19.006;2023-04-15T10:27:30;2.63;;;0.80;;
41572;SDS011;27286;47.870;19.006;2023-04-15T10:29:55;3.15;;;0.80;;
41572;SDS011;27286;47.870;19.006;2023-04-15T10:32:21;4.28;;;1.80;;
41572;SDS011;27286;47.870;19.006;2023-04-15T10:34:49;0.93;;;0.40;;
41572;SDS011;27286;47.870;19.006;2023-04-15T10:37:33;1.27;;;0.57;;
41572;SDS011;27286;47.870;19.006;2023-04-15T10:40:00;1.67;;;0.60;;
41572;SDS011;27286;47.870;19.006;2023-04-15T10:42:53;1.50;;;0.60;;
41572;SDS011;27286;47.870;19.006;2023-04-15T10:45:20;3.50;;;2.33;;
41572;SDS011;27286;47.870;19.006;2023-04-15T10:47:50;4.47;;;1.10;;
41572;SDS011;27286;47.870;19.006;2023-04-15T10:50:17;1.42;;;0.55;;
41572;SDS011;27286;47.870;19.006;2023-04-15T10:52:43;2.42;;;0.40;;
41572;SDS011;27286;47.870;19.006;2023-04-15T10:57:43;4.70;;;0.68;;
41572;SDS011;27286;47.870;19.006;2023-04-15T11:00:13;2.65;;;1.33;;
41572;SDS011;27286;47.870;19.006;2023-04-15T11:05:22;2.22;;;0.70;;
41572;SDS011;27286;47.870;19.006;2023-04-15T11:08:06;3.90;;;0.90;;
41572;SDS011;27286;47.870;19.006;2023-04-15T11:12:58;1.38;;;0.60;;
41572;SDS011;27286;47.870;19.006;2023-04-15T11:15:29;2.80;;;1.35;;
41572;SDS011;27286;47.870;19.006;2023-04-15T11:17:58;3.35;;;1.25;;
41572;SDS011;27286;47.870;19.006;2023-04-15T11:20:36;2.72;;;1.23;;
41572;SDS011;27286;47.870;19.006;2023-04-15T11:23:02;2.20;;;0.73;;
41572;SDS011;27286;47.870;19.006;2023-04-15T11:25:29;6.60;;;1.60;;
41572;SDS011;27286;47.870;19.006;2023-04-15T11:27:57;9.98;;;5.70;;
41572;SDS011;27286;47.870;19.006;2023-04-15T11:30:24;5.07;;;1.42;;
41572;SDS011;27286;47.870;19.006;2023-04-15T11:32:52;5.18;;;1.80;;
41572;SDS011;27286;47.870;19.006;2023-04-15T11:35:19;4.47;;;1.85;;
41572;SDS011;27286;47.870;19.006;2023-04-15T11:37:45;3.85;;;1.90;;
41572;SDS011;27286;47.870;19.006;2023-04-15T11:40:11;4.20;;;1.88;;
41572;SDS011;27286;47.870;19.006;2023-04-15T11:42:37;2.38;;;1.65;;
41572;SDS011;27286;47.870;19.006;2023-04-15T11:45:10;3.35;;;2.33;;
41572;SDS011;27286;47.870;19.006;2023-04-15T11:47:36;5.60;;;3.15;;
41572;SDS011;27286;47.870;19.006;2023-04-15T11:50:15;4.00;;;2.45;;
41572;SDS011;27286;47.870;19.006;2023-04-15T11:52:58;2.88;;;1.60;;
41572;SDS011;27286;47.870;19.006;2023-04-15T11:55:29;1.55;;;0.60;;
41572;SDS011;27286;47.870;19.006;2023-04-15T11:58:08;3.05;;;1.42;;
41572;SDS011;27286;47.870;19.006;2023-04-15T12:00:37;0.90;;;0.30;;
41572;SDS011;27286;47.870;19.006;2023-04-15T12:03:15;0.90;;;0.50;;
41572;SDS011;27286;47.870;19.006;2023-04-15T12:13:58;4.07;;;0.30;;
41572;SDS011;27286;47.870;19.006;2023-04-15T12:16:30;0.40;;;0.20;;
41572;SDS011;27286;47.870;19.006;2023-04-15T12:18:57;0.43;;;0.17;;
41572;SDS011;27286;47.870;19.006;2023-04-15T12:21:24;0.50;;;0.15;;
41572;SDS011;27286;47.870;19.006;2023-04-15T12:23:52;0.30;;;0.10;;
41572;SDS011;27286;47.870;19.006;2023-04-15T12:26:26;0.70;;;0.20;;
41572;SDS011;27286;47.870;19.006;2023-04-15T12:29:03;2.65;;;0.30;;
41572;SDS011;27286;47.870;19.006;2023-04-15T12:31:31;0.90;;;0.40;;
41572;SDS011;27286;47.870;19.006;2023-04-15T12:33:57;1.92;;;0.68;;
41572;SDS011;27286;47.870;19.006;2023-04-15T12:36:24;1.45;;;0.40;;
41572;SDS011;27286;47.870;19.006;2023-04-15T12:38:50;1.80;;;0.55;;
41572;SDS011;27286;47.870;19.006;2023-04-15T12:41:15;2.10;;;1.25;;
41572;SDS011;27286;47.870;19.006;2023-04-15T12:43:43;2.30;;;1.15;;
41572;SDS011;27286;47.870;19.006;2023-04-15T12:46:09;2.83;;;1.48;;
41572;SDS011;27286;47.870;19.006;2023-04-15T12:48:35;1.50;;;0.52;;
41572;SDS011;27286;47.870;19.006;2023-04-15T12:51:00;3.95;;;2.50;;
41572;SDS011;27286;47.870;19.006;2023-04-15T12:53:26;4.85;;;2.63;;
41572;SDS011;27286;47.870;19.006;2023-04-15T12:55:52;3.60;;;1.00;;
41572;SDS011;27286;47.870;19.006;2023-04-15T12:58:18;2.65;;;1.15;;
41572;SDS011;27286;47.870;19.006;2023-04-15T13:00:44;3.38;;;2.13;;
41572;SDS011;27286;47.870;19.006;2023-04-15T13:03:09;1.50;;;0.70;;
41572;SDS011;27286;47.870;19.006;2023-04-15T13:05:35;1.52;;;0.50;;
41572;SDS011;27286;47.870;19.006;2023-04-15T13:08:03;1.20;;;0.17;;
41572;SDS011;27286;47.870;19.006;2023-04-15T13:10:29;0.80;;;0.20;;
41572;SDS011;27286;47.870;19.006;2023-04-15T13:12:55;0.95;;;0.20;;
41572;SDS011;27286;47.870;19.006;2023-04-15T13:15:21;1.00;;;0.15;;
41572;SDS011;27286;47.870;19.006;2023-04-15T13:17:46;0.30;;;0.10;;
41572;SDS011;27286;47.870;19.006;2023-04-15T13:20:12;1.02;;;0.30;;
41572;SDS011;27286;47.870;19.006;2023-04-15T13:22:38;0.20;;;0.10;;
41572;SDS011;27286;47.870;19.006;2023-04-15T13:25:04;0.32;;;0.15;;
41572;SDS011;27286;47.870;19.006;2023-04-15T13:27:30;0.45;;;0.10;;
41572;SDS011;27286;47.870;19.006;2023-04-15T13:29:55;0.47;;;0.13;;
41572;SDS011;27286;47.870;19.006;2023-04-15T13:32:21;0.98;;;0.20;;
41572;SDS011;27286;47.870;19.006;2023-04-15T13:34:46;1.15;;;0.32;;
41572;SDS011;27286;47.870;19.006;2023-04-15T13:37:12;0.75;;;0.20;;
41572;SDS011;27286;47.870;19.006;2023-04-15T13:39:37;0.60;;;0.30;;
41572;SDS011;27286;47.870;19.006;2023-04-15T13:42:03;1.00;;;0.43;;
41572;SDS011;27286;47.870;19.006;2023-04-15T13:44:29;1.05;;;0.50;;
41572;SDS011;27286;47.870;19.006;2023-04-15T13:46:54;3.47;;;1.25;;
41572;SDS011;27286;47.870;19.006;2023-04-15T13:49:20;3.92;;;1.75;;
41572;SDS011;27286;47.870;19.006;2023-04-15T13:51:47;2.25;;;0.98;;
41572;SDS011;27286;47.870;19.006;2023-04-15T13:54:12;4.32;;;1.40;;
41572;SDS011;27286;47.870;19.006;2023-04-15T13:56:37;3.95;;;1.50;;
41572;SDS011;27286;47.870;19.006;2023-04-15T13:59:03;2.30;;;1.00;;
41572;SDS011;27286;47.870;19.006;2023-04-15T14:01:30;8.35;;;5.63;;
41572;SDS011;27286;47.870;19.006;2023-04-15T14:03:56;1.75;;;0.50;;
41572;SDS011;27286;47.870;19.006;2023-04-15T14:06:21;1.27;;;0.50;;
41572;SDS011;27286;47.870;19.006;2023-04-15T14:08:47;1.65;;;0.47;;
41572;SDS011;27286;47.870;19.006;2023-04-15T14:11:12;2.42;;;0.90;;
41572;SDS011;27286;47.870;19.006;2023-04-15T14:13:38;1.20;;;0.30;;
41572;SDS011;27286;47.870;19.006;2023-04-15T14:16:03;0.73;;;0.20;;
41572;SDS011;27286;47.870;19.006;2023-04-15T14:18:29;1.77;;;0.57;;
41572;SDS011;27286;47.870;19.006;2023-04-15T14:20:54;1.58;;;0.50;;
41572;SDS011;27286;47.870;19.006;2023-04-15T14:23:21;6.15;;;1.63;;
41572;SDS011;27286;47.870;19.006;2023-04-15T14:25:47;3.35;;;1.25;;
41572;SDS011;27286;47.870;19.006;2023-04-15T14:28:13;4.03;;;0.80;;
41572;SDS011;27286;47.870;19.006;2023-04-15T14:30:38;2.92;;;1.13;;
41572;SDS011;27286;47.870;19.006;2023-04-15T14:33:04;2.85;;;1.48;;
41572;SDS011;27286;47.870;19.006;2023-04-15T14:35:29;6.18;;;3.47;;
41572;SDS011;27286;47.870;19.006;2023-04-15T14:37:55;3.30;;;2.58;;
41572;SDS011;27286;47.870;19.006;2023-04-15T14:40:21;5.88;;;3.60;;
41572;SDS011;27286;47.870;19.006;2023-04-15T14:42:47;3.95;;;1.63;;
41572;SDS011;27286;47.870;19.006;2023-04-15T14:45:13;3.50;;;2.08;;
41572;SDS011;27286;47.870;19.006;2023-04-15T14:47:38;3.60;;;1.90;;
41572;SDS011;27286;47.870;19.006;2023-04-15T14:50:04;2.50;;;1.27;;